sensor_id;sensor_type;location;lat;lon;timestamp;P1;P2;P0
44933;PMS3003;30667;43.614;1.442;2022-07-23T00:01:00;6.50;6.00;3.50
44933;PMS3003;30667;43.614;1.442;2022-07-23T00:03:26;7.25;6.50;3.25
44933;PMS3003;30667;43.614;1.442;2022-07-23T00:05:52;7.00;6.60;3.80
44933;PMS3003;30667;43.614;1.442;2022-07-23T00:08:18;8.00;7.00;4.50
44933;PMS3003;30667;43.614;1.442;2022-07-23T00:10:43;6.75;6.00;4.00
44933;PMS3003;30667;43.614;1.442;2022-07-23T00:13:08;7.00;6.25;3.25
44933;PMS3003;30667;43.614;1.442;2022-07-23T00:15:34;7.00;6.75;4.00
44933;PMS3003;30667;43.614;1.442;2022-07-23T00:17:59;7.00;7.00;4.00
44933;PMS3003;30667;43.614;1.442;2022-07-23T00:20:25;6.50;6.50;4.25
44933;PMS3003;30667;43.614;1.442;2022-07-23T00:22:51;7.00;7.00;3.50
44933;PMS3003;30667;43.614;1.442;2022-07-23T00:25:18;9.00;7.60;4.00
44933;PMS3003;30667;43.614;1.442;2022-07-23T00:27:44;9.00;8.20;3.40
44933;PMS3003;30667;43.614;1.442;2022-07-23T00:30:10;9.00;8.00;4.00
44933;PMS3003;30667;43.614;1.442;2022-07-23T00:32:46;9.80;7.00;4.60
44933;PMS3003;30667;43.614;1.442;2022-07-23T00:35:12;6.40;6.00;3.20
44933;PMS3003;30667;43.614;1.442;2022-07-23T00:37:38;7.00;6.60;4.00
44933;PMS3003;30667;43.614;1.442;2022-07-23T00:40:03;9.00;8.50;4.00
44933;PMS3003;30667;43.614;1.442;2022-07-23T00:42:30;9.40;8.60;4.60
44933;PMS3003;30667;43.614;1.442;2022-07-23T00:44:56;9.80;9.00;5.20
44933;PMS3003;30667;43.614;1.442;2022-07-23T00:47:22;9.00;8.00;4.25
44933;PMS3003;30667;43.614;1.442;2022-07-23T00:49:47;7.00;7.00;4.50
44933;PMS3003;30667;43.614;1.442;2022-07-23T00:52:13;7.50;7.50;4.75
44933;PMS3003;30667;43.614;1.442;2022-07-23T00:54:38;7.50;7.50;4.25
44933;PMS3003;30667;43.614;1.442;2022-07-23T00:57:04;7.25;7.00;4.00
44933;PMS3003;30667;43.614;1.442;2022-07-23T00:59:30;8.20;8.00;4.80
44933;PMS3003;30667;43.614;1.442;2022-07-23T01:01:55;7.00;6.00;3.75
44933;PMS3003;30667;43.614;1.442;2022-07-23T01:04:21;6.50;6.25;3.25
44933;PMS3003;30667;43.614;1.442;2022-07-23T01:06:46;8.50;7.75;4.00
44933;PMS3003;30667;43.614;1.442;2022-07-23T01:09:12;8.25;7.50;4.25
44933;PMS3003;30667;43.614;1.442;2022-07-23T01:11:37;8.75;7.50;4.75
44933;PMS3003;30667;43.614;1.442;2022-07-23T01:14:10;9.00;8.00;5.00
44933;PMS3003;30667;43.614;1.442;2022-07-23T01:16:40;9.00;7.80;4.60
44933;PMS3003;30667;43.614;1.442;2022-07-23T01:19:07;10.00;8.20;4.80
44933;PMS3003;30667;43.614;1.442;2022-07-23T01:21:37;9.40;8.80;5.00
44933;PMS3003;30667;43.614;1.442;2022-07-23T01:24:04;8.60;8.20;4.40
44933;PMS3003;30667;43.614;1.442;2022-07-23T01:26:30;9.20;7.80;4.60
44933;PMS3003;30667;43.614;1.442;2022-07-23T01:28:55;8.00;6.25;3.50
44933;PMS3003;30667;43.614;1.442;2022-07-23T01:31:21;8.50;7.25;4.00
44933;PMS3003;30667;43.614;1.442;2022-07-23T01:33:48;10.60;8.40;5.00
44933;PMS3003;30667;43.614;1.442;2022-07-23T01:36:13;9.00;8.00;5.00
44933;PMS3003;30667;43.614;1.442;2022-07-23T01:38:39;8.25;7.50;4.00
44933;PMS3003;30667;43.614;1.442;2022-07-23T01:41:04;8.50;8.00;4.00
44933;PMS3003;30667;43.614;1.442;2022-07-23T01:43:30;8.00;7.75;4.00
44933;PMS3003;30667;43.614;1.442;2022-07-23T01:45:55;8.00;7.00;4.00
44933;PMS3003;30667;43.614;1.442;2022-07-23T01:48:21;8.00;8.00;5.00
44933;PMS3003;30667;43.614;1.442;2022-07-23T01:50:46;8.25;7.00;4.00
44933;PMS3003;30667;43.614;1.442;2022-07-23T01:53:12;10.00;9.00;5.40
44933;PMS3003;30667;43.614;1.442;2022-07-23T01:55:38;9.00;8.40;5.00
44933;PMS3003;30667;43.614;1.442;2022-07-23T01:58:04;9.00;8.00;4.75
44933;PMS3003;30667;43.614;1.442;2022-07-23T02:00:30;8.80;8.20;5.00
44933;PMS3003;30667;43.614;1.442;2022-07-23T02:02:55;7.75;6.75;4.75
44933;PMS3003;30667;43.614;1.442;2022-07-23T02:05:23;10.00;8.80;5.40
44933;PMS3003;30667;43.614;1.442;2022-07-23T02:07:48;8.00;8.00;4.00
44933;PMS3003;30667;43.614;1.442;2022-07-23T02:10:13;9.00;7.25;4.75
44933;PMS3003;30667;43.614;1.442;2022-07-23T02:12:39;8.50;8.25;4.00
44933;PMS3003;30667;43.614;1.442;2022-07-23T02:15:04;8.00;8.00;4.00
44933;PMS3003;30667;43.614;1.442;2022-07-23T02:17:30;9.00;8.80;5.00
44933;PMS3003;30667;43.614;1.442;2022-07-23T02:19:56;8.25;7.50;3.50
44933;PMS3003;30667;43.614;1.442;2022-07-23T02:22:21;8.00;8.00;4.00
44933;PMS3003;30667;43.614;1.442;2022-07-23T02:24:47;8.75;8.00;4.00
44933;PMS3003;30667;43.614;1.442;2022-07-23T02:27:12;8.25;7.50;4.25
44933;PMS3003;30667;43.614;1.442;2022-07-23T02:29:37;11.25;8.75;4.50
44933;PMS3003;30667;43.614;1.442;2022-07-23T02:32:03;8.25;8.25;4.25
44933;PMS3003;30667;43.614;1.442;2022-07-23T02:34:28;9.50;9.00;5.00
44933;PMS3003;30667;43.614;1.442;2022-07-23T02:36:54;9.50;8.50;4.00
44933;PMS3003;30667;43.614;1.442;2022-07-23T02:39:19;8.00;8.00;5.00
44933;PMS3003;30667;43.614;1.442;2022-07-23T02:41:45;8.50;7.00;4.00
44933;PMS3003;30667;43.614;1.442;2022-07-23T02:44:10;7.75;7.75;4.00
44933;PMS3003;30667;43.614;1.442;2022-07-23T02:46:35;8.25;8.25;5.00
44933;PMS3003;30667;43.614;1.442;2022-07-23T02:49:01;9.00;8.75;4.75
44933;PMS3003;30667;43.614;1.442;2022-07-23T02:51:26;9.00;8.25;5.00
44933;PMS3003;30667;43.614;1.442;2022-07-23T02:53:54;8.20;8.20;4.00
44933;PMS3003;30667;43.614;1.442;2022-07-23T02:56:20;7.50;7.50;4.25
44933;PMS3003;30667;43.614;1.442;2022-07-23T02:58:48;8.00;8.00;4.75
44933;PMS3003;30667;43.614;1.442;2022-07-23T05:33:20;6.75;6.50;4.00
44933;PMS3003;30667;43.614;1.442;2022-07-23T05:43:03;10.60;8.20;5.20
44933;PMS3003;30667;43.614;1.442;2022-07-23T05:49:21;9.00;8.20;4.60
44933;PMS3003;30667;43.614;1.442;2022-07-23T05:51:59;8.00;7.80;4.80
44933;PMS3003;30667;43.614;1.442;2022-07-23T05:54:34;7.40;7.40;4.40
44933;PMS3003;30667;43.614;1.442;2022-07-23T05:57:11;7.80;7.80;4.00
44933;PMS3003;30667;43.614;1.442;2022-07-23T05:59:37;8.80;8.00;4.40
44933;PMS3003;30667;43.614;1.442;2022-07-23T06:02:02;8.00;8.00;4.25
44933;PMS3003;30667;43.614;1.442;2022-07-23T06:04:30;9.40;8.40;4.40
44933;PMS3003;30667;43.614;1.442;2022-07-23T06:06:55;7.50;7.00;4.00
44933;PMS3003;30667;43.614;1.442;2022-07-23T06:09:21;7.00;6.50;3.25
44933;PMS3003;30667;43.614;1.442;2022-07-23T06:11:46;8.00;7.00;4.00
44933;PMS3003;30667;43.614;1.442;2022-07-23T06:14:12;7.75;7.75;4.00
44933;PMS3003;30667;43.614;1.442;2022-07-23T06:16:37;9.00;7.25;3.50
44933;PMS3003;30667;43.614;1.442;2022-07-23T06:19:02;11.25;9.00;5.00
44933;PMS3003;30667;43.614;1.442;2022-07-23T06:21:28;7.00;7.00;3.00
44933;PMS3003;30667;43.614;1.442;2022-07-23T06:23:53;8.00;8.00;4.00
44933;PMS3003;30667;43.614;1.442;2022-07-23T06:26:18;6.25;6.25;4.00
44933;PMS3003;30667;43.614;1.442;2022-07-23T06:28:44;8.00;8.00;5.00
44933;PMS3003;30667;43.614;1.442;2022-07-23T06:31:09;7.50;7.25;4.00
44933;PMS3003;30667;43.614;1.442;2022-07-23T06:33:34;10.25;8.75;4.00
44933;PMS3003;30667;43.614;1.442;2022-07-23T06:36:00;9.00;8.00;4.00
44933;PMS3003;30667;43.614;1.442;2022-07-23T06:38:25;9.50;8.75;5.00
44933;PMS3003;30667;43.614;1.442;2022-07-23T06:40:51;7.00;7.00;4.00
44933;PMS3003;30667;43.614;1.442;2022-07-23T06:43:16;8.25;7.75;4.00
44933;PMS3003;30667;43.614;1.442;2022-07-23T06:45:41;9.50;9.00;5.50
44933;PMS3003;30667;43.614;1.442;2022-07-23T06:48:07;9.50;9.50;5.75
44933;PMS3003;30667;43.614;1.442;2022-07-23T06:50:32;8.25;8.00;5.00
44933;PMS3003;30667;43.614;1.442;2022-07-23T06:52:58;9.25;9.25;5.00
44933;PMS3003;30667;43.614;1.442;2022-07-23T06:55:23;8.75;8.00;5.00
44933;PMS3003;30667;43.614;1.442;2022-07-23T06:57:49;8.75;8.00;5.25
44933;PMS3003;30667;43.614;1.442;2022-07-23T07:00:14;9.00;8.75;5.00
44933;PMS3003;30667;43.614;1.442;2022-07-23T07:02:39;9.75;9.50;5.25
44933;PMS3003;30667;43.614;1.442;2022-07-23T07:05:05;8.00;8.00;4.75
44933;PMS3003;30667;43.614;1.442;2022-07-23T07:07:30;7.00;7.00;4.00
44933;PMS3003;30667;43.614;1.442;2022-07-23T07:09:56;9.25;8.75;4.25
44933;PMS3003;30667;43.614;1.442;2022-07-23T07:12:21;10.25;8.00;5.00
44933;PMS3003;30667;43.614;1.442;2022-07-23T07:14:47;8.00;8.00;4.00
44933;PMS3003;30667;43.614;1.442;2022-07-23T07:17:12;8.75;8.75;5.25
44933;PMS3003;30667;43.614;1.442;2022-07-23T07:19:37;8.75;8.75;5.00
44933;PMS3003;30667;43.614;1.442;2022-07-23T07:22:03;9.75;8.25;5.50
44933;PMS3003;30667;43.614;1.442;2022-07-23T07:24:28;9.00;9.00;5.00
44933;PMS3003;30667;43.614;1.442;2022-07-23T07:26:54;8.00;8.00;5.00
44933;PMS3003;30667;43.614;1.442;2022-07-23T07:29:19;10.00;9.25;5.00
44933;PMS3003;30667;43.614;1.442;2022-07-23T07:31:44;9.25;8.00;5.00
44933;PMS3003;30667;43.614;1.442;2022-07-23T07:34:10;10.00;10.00;5.25
44933;PMS3003;30667;43.614;1.442;2022-07-23T07:36:35;8.75;8.25;5.00
44933;PMS3003;30667;43.614;1.442;2022-07-23T07:39:02;10.60;9.40;5.40
44933;PMS3003;30667;43.614;1.442;2022-07-23T07:41:29;10.00;9.40;5.00
44933;PMS3003;30667;43.614;1.442;2022-07-23T07:43:55;8.40;8.40;5.00
44933;PMS3003;30667;43.614;1.442;2022-07-23T07:46:21;8.00;8.00;5.00
44933;PMS3003;30667;43.614;1.442;2022-07-23T07:48:48;9.00;8.00;4.80
44933;PMS3003;30667;43.614;1.442;2022-07-23T07:51:14;8.00;8.00;4.40
44933;PMS3003;30667;43.614;1.442;2022-07-23T07:53:40;8.75;8.75;5.00
44933;PMS3003;30667;43.614;1.442;2022-07-23T07:56:05;9.00;8.50;5.00
44933;PMS3003;30667;43.614;1.442;2022-07-23T07:58:31;8.00;7.00;4.00
44933;PMS3003;30667;43.614;1.442;2022-07-23T08:00:56;8.75;8.00;4.75
44933;PMS3003;30667;43.614;1.442;2022-07-23T08:03:22;9.50;9.50;5.75
44933;PMS3003;30667;43.614;1.442;2022-07-23T08:05:47;8.75;8.25;5.00
44933;PMS3003;30667;43.614;1.442;2022-07-23T08:08:12;10.00;9.00;5.25
44933;PMS3003;30667;43.614;1.442;2022-07-23T08:10:39;9.00;9.00;5.00
44933;PMS3003;30667;43.614;1.442;2022-07-23T08:13:05;7.40;6.80;4.00
44933;PMS3003;30667;43.614;1.442;2022-07-23T08:15:31;10.00;9.00;6.00
44933;PMS3003;30667;43.614;1.442;2022-07-23T08:17:57;9.00;8.80;5.00
44933;PMS3003;30667;43.614;1.442;2022-07-23T08:20:24;10.60;9.20;5.00
44933;PMS3003;30667;43.614;1.442;2022-07-23T08:25:21;10.80;10.60;6.00
44933;PMS3003;30667;43.614;1.442;2022-07-23T08:27:59;9.60;8.60;5.40
44933;PMS3003;30667;43.614;1.442;2022-07-23T08:30:25;9.80;9.00;5.00
44933;PMS3003;30667;43.614;1.442;2022-07-23T08:35:21;8.40;8.20;5.00
44933;PMS3003;30667;43.614;1.442;2022-07-23T08:37:52;9.60;9.00;5.00
44933;PMS3003;30667;43.614;1.442;2022-07-23T08:40:18;9.40;8.60;5.00
44933;PMS3003;30667;43.614;1.442;2022-07-23T08:42:45;10.60;10.00;5.00
44933;PMS3003;30667;43.614;1.442;2022-07-23T08:45:13;9.60;9.40;6.00
44933;PMS3003;30667;43.614;1.442;2022-07-23T08:47:42;9.40;7.80;4.60
44933;PMS3003;30667;43.614;1.442;2022-07-23T08:50:08;8.80;7.80;4.80
44933;PMS3003;30667;43.614;1.442;2022-07-23T08:52:35;9.00;8.60;4.60
44933;PMS3003;30667;43.614;1.442;2022-07-23T08:55:01;9.60;9.00;5.00
44933;PMS3003;30667;43.614;1.442;2022-07-23T08:57:26;9.25;8.00;4.50
44933;PMS3003;30667;43.614;1.442;2022-07-23T08:59:52;8.25;8.25;5.25
44933;PMS3003;30667;43.614;1.442;2022-07-23T09:02:17;8.25;7.25;5.00
44933;PMS3003;30667;43.614;1.442;2022-07-23T09:04:43;7.50;6.75;4.00
44933;PMS3003;30667;43.614;1.442;2022-07-23T09:07:08;7.50;7.50;4.75
44933;PMS3003;30667;43.614;1.442;2022-07-23T09:09:34;8.00;7.00;4.00
44933;PMS3003;30667;43.614;1.442;2022-07-23T09:12:03;7.25;7.25;4.00
44933;PMS3003;30667;43.614;1.442;2022-07-23T09:14:43;7.00;7.00;4.00
44933;PMS3003;30667;43.614;1.442;2022-07-23T09:17:14;8.40;8.00;4.20
44933;PMS3003;30667;43.614;1.442;2022-07-23T09:19:41;6.80;6.20;4.00
44933;PMS3003;30667;43.614;1.442;2022-07-23T09:22:24;5.20;5.20;3.20
44933;PMS3003;30667;43.614;1.442;2022-07-23T09:27:53;8.00;7.00;4.00
44933;PMS3003;30667;43.614;1.442;2022-07-23T09:30:25;6.20;6.20;3.00
44933;PMS3003;30667;43.614;1.442;2022-07-23T09:35:50;8.00;7.80;3.00
44933;PMS3003;30667;43.614;1.442;2022-07-23T09:38:21;7.00;7.00;4.00
44933;PMS3003;30667;43.614;1.442;2022-07-23T09:43:38;6.40;6.20;3.00
44933;PMS3003;30667;43.614;1.442;2022-07-23T09:46:25;6.00;6.00;3.00
44933;PMS3003;30667;43.614;1.442;2022-07-23T09:48:51;5.00;4.60;2.80
44933;PMS3003;30667;43.614;1.442;2022-07-23T09:51:23;7.80;6.80;3.00
44933;PMS3003;30667;43.614;1.442;2022-07-23T09:53:52;7.00;6.00;3.00
44933;PMS3003;30667;43.614;1.442;2022-07-23T09:56:17;7.25;7.25;4.50
44933;PMS3003;30667;43.614;1.442;2022-07-23T09:58:45;7.60;7.00;3.80
44933;PMS3003;30667;43.614;1.442;2022-07-23T10:01:15;5.60;5.60;3.80
44933;PMS3003;30667;43.614;1.442;2022-07-23T10:03:41;6.20;5.60;3.20
44933;PMS3003;30667;43.614;1.442;2022-07-23T10:06:08;6.20;5.80;2.80
44933;PMS3003;30667;43.614;1.442;2022-07-23T10:08:39;6.80;6.40;2.80
44933;PMS3003;30667;43.614;1.442;2022-07-23T10:11:07;4.80;4.80;2.80
44933;PMS3003;30667;43.614;1.442;2022-07-23T10:13:34;6.60;4.80;2.80
44933;PMS3003;30667;43.614;1.442;2022-07-23T10:16:19;5.80;5.00;2.80
44933;PMS3003;30667;43.614;1.442;2022-07-23T10:18:45;5.60;5.60;2.80
44933;PMS3003;30667;43.614;1.442;2022-07-23T10:21:11;4.80;4.80;2.80
44933;PMS3003;30667;43.614;1.442;2022-07-23T10:23:48;5.80;5.00;2.80
44933;PMS3003;30667;43.614;1.442;2022-07-23T10:26:32;7.40;7.00;3.00
44933;PMS3003;30667;43.614;1.442;2022-07-23T10:32:29;4.60;4.20;2.00
44933;PMS3003;30667;43.614;1.442;2022-07-23T10:37:34;5.80;5.20;2.80
44933;PMS3003;30667;43.614;1.442;2022-07-23T10:40:20;5.00;5.00;2.00
44933;PMS3003;30667;43.614;1.442;2022-07-23T10:42:48;5.80;5.80;2.80
44933;PMS3003;30667;43.614;1.442;2022-07-23T10:45:32;5.00;4.40;2.00
44933;PMS3003;30667;43.614;1.442;2022-07-23T10:48:32;5.20;5.00;1.60
44933;PMS3003;30667;43.614;1.442;2022-07-23T10:51:10;3.20;3.20;1.20
44933;PMS3003;30667;43.614;1.442;2022-07-23T10:59:14;4.20;4.20;1.80
44933;PMS3003;30667;43.614;1.442;2022-07-23T11:01:39;4.00;4.00;1.00
44933;PMS3003;30667;43.614;1.442;2022-07-23T11:04:05;4.00;4.00;1.25
44933;PMS3003;30667;43.614;1.442;2022-07-23T11:09:23;4.20;3.00;0.80
44933;PMS3003;30667;43.614;1.442;2022-07-23T11:17:34;2.40;2.40;0.60
44933;PMS3003;30667;43.614;1.442;2022-07-23T11:20:16;3.40;3.40;1.00
44933;PMS3003;30667;43.614;1.442;2022-07-23T11:25:08;3.50;3.50;1.00
44933;PMS3003;30667;43.614;1.442;2022-07-23T11:32:47;2.80;2.40;0.80
44933;PMS3003;30667;43.614;1.442;2022-07-23T11:35:22;4.00;4.00;1.00
44933;PMS3003;30667;43.614;1.442;2022-07-23T11:37:50;3.00;3.00;1.00
44933;PMS3003;30667;43.614;1.442;2022-07-23T11:40:23;4.80;4.00;1.80
44933;PMS3003;30667;43.614;1.442;2022-07-23T11:43:09;3.00;2.20;0.60
44933;PMS3003;30667;43.614;1.442;2022-07-23T11:45:36;4.40;4.00;1.80
44933;PMS3003;30667;43.614;1.442;2022-07-23T11:48:09;3.00;3.00;1.00
44933;PMS3003;30667;43.614;1.442;2022-07-23T11:56:13;4.80;4.80;2.80
44933;PMS3003;30667;43.614;1.442;2022-07-23T11:58:38;5.00;4.80;1.00
44933;PMS3003;30667;43.614;1.442;2022-07-23T12:01:14;4.80;4.60;2.00
44933;PMS3003;30667;43.614;1.442;2022-07-23T12:07:01;5.00;4.40;2.00
44933;PMS3003;30667;43.614;1.442;2022-07-23T12:09:54;5.80;5.00;2.20
44933;PMS3003;30667;43.614;1.442;2022-07-23T12:12:24;7.20;6.20;3.80
44933;PMS3003;30667;43.614;1.442;2022-07-23T12:14:54;4.80;4.80;2.00
44933;PMS3003;30667;43.614;1.442;2022-07-23T12:17:29;4.00;3.40;1.00
44933;PMS3003;30667;43.614;1.442;2022-07-23T12:20:01;4.00;4.00;1.40
44933;PMS3003;30667;43.614;1.442;2022-07-23T12:22:34;6.00;5.00;2.60
44933;PMS3003;30667;43.614;1.442;2022-07-23T12:25:18;6.40;6.40;3.00
44933;PMS3003;30667;43.614;1.442;2022-07-23T12:27:58;6.00;6.00;3.00
44933;PMS3003;30667;43.614;1.442;2022-07-23T12:32:59;6.20;5.40;2.20
44933;PMS3003;30667;43.614;1.442;2022-07-23T12:35:32;5.60;5.00;2.00
44933;PMS3003;30667;43.614;1.442;2022-07-23T12:38:01;6.20;5.20;2.00
44933;PMS3003;30667;43.614;1.442;2022-07-23T12:45:51;6.80;6.60;3.00
44933;PMS3003;30667;43.614;1.442;2022-07-23T12:48:31;6.40;6.00;3.00
44933;PMS3003;30667;43.614;1.442;2022-07-23T12:51:02;6.00;6.00;3.00
44933;PMS3003;30667;43.614;1.442;2022-07-23T12:53:32;7.20;6.00;3.00
44933;PMS3003;30667;43.614;1.442;2022-07-23T12:59:10;6.00;5.00;2.80
44933;PMS3003;30667;43.614;1.442;2022-07-23T13:01:59;8.60;6.60;3.60
44933;PMS3003;30667;43.614;1.442;2022-07-23T13:04:26;6.60;6.60;3.60
44933;PMS3003;30667;43.614;1.442;2022-07-23T13:06:52;7.00;7.00;4.00
44933;PMS3003;30667;43.614;1.442;2022-07-23T13:09:27;9.00;8.80;5.00
44933;PMS3003;30667;43.614;1.442;2022-07-23T13:11:54;6.60;6.60;3.40
44933;PMS3003;30667;43.614;1.442;2022-07-23T13:14:21;6.00;6.00;4.00
44933;PMS3003;30667;43.614;1.442;2022-07-23T13:16:47;7.00;6.20;3.20
44933;PMS3003;30667;43.614;1.442;2022-07-23T13:19:15;8.80;8.20;4.00
44933;PMS3003;30667;43.614;1.442;2022-07-23T13:21:41;6.80;6.00;3.00
44933;PMS3003;30667;43.614;1.442;2022-07-23T13:24:07;8.00;6.00;4.00
44933;PMS3003;30667;43.614;1.442;2022-07-23T13:26:33;8.80;8.80;5.40
44933;PMS3003;30667;43.614;1.442;2022-07-23T13:28:58;8.75;8.00;4.25
44933;PMS3003;30667;43.614;1.442;2022-07-23T13:31:24;8.75;7.00;4.00
44933;PMS3003;30667;43.614;1.442;2022-07-23T13:33:49;8.25;8.00;4.00
44933;PMS3003;30667;43.614;1.442;2022-07-23T13:36:15;6.75;6.00;3.25
44933;PMS3003;30667;43.614;1.442;2022-07-23T13:38:40;7.50;7.25;5.00
44933;PMS3003;30667;43.614;1.442;2022-07-23T13:41:06;8.00;7.80;4.60
44933;PMS3003;30667;43.614;1.442;2022-07-23T13:43:31;9.25;9.25;5.25
44933;PMS3003;30667;43.614;1.442;2022-07-23T13:45:57;12.60;10.80;6.80
44933;PMS3003;30667;43.614;1.442;2022-07-23T13:48:23;13.40;12.60;7.40
44933;PMS3003;30667;43.614;1.442;2022-07-23T13:50:49;15.50;15.25;10.25
44933;PMS3003;30667;43.614;1.442;2022-07-23T13:53:16;13.00;13.00;9.00
44933;PMS3003;30667;43.614;1.442;2022-07-23T13:55:46;12.60;12.60;7.80
44933;PMS3003;30667;43.614;1.442;2022-07-23T13:58:13;11.80;11.20;7.00
44933;PMS3003;30667;43.614;1.442;2022-07-23T14:00:39;9.75;9.75;6.00
44933;PMS3003;30667;43.614;1.442;2022-07-23T14:03:08;9.00;9.00;5.00
44933;PMS3003;30667;43.614;1.442;2022-07-23T14:05:33;9.40;8.60;5.80
44933;PMS3003;30667;43.614;1.442;2022-07-23T14:07:59;10.00;9.00;5.00
44933;PMS3003;30667;43.614;1.442;2022-07-23T14:10:25;8.60;8.20;4.80
44933;PMS3003;30667;43.614;1.442;2022-07-23T14:12:51;9.00;8.00;5.00
44933;PMS3003;30667;43.614;1.442;2022-07-23T14:15:27;10.40;10.00;6.00
44933;PMS3003;30667;43.614;1.442;2022-07-23T14:17:54;9.20;9.00;4.60
44933;PMS3003;30667;43.614;1.442;2022-07-23T14:20:20;10.00;9.80;5.20
44933;PMS3003;30667;43.614;1.442;2022-07-23T14:22:46;9.25;8.75;4.75
44933;PMS3003;30667;43.614;1.442;2022-07-23T14:25:11;9.75;9.00;5.00
44933;PMS3003;30667;43.614;1.442;2022-07-23T14:27:37;10.50;9.00;6.00
44933;PMS3003;30667;43.614;1.442;2022-07-23T14:30:03;10.25;9.00;5.25
44933;PMS3003;30667;43.614;1.442;2022-07-23T14:32:30;10.00;10.00;6.00
44933;PMS3003;30667;43.614;1.442;2022-07-23T14:34:56;7.00;7.00;4.00
44933;PMS3003;30667;43.614;1.442;2022-07-23T14:37:21;9.50;9.25;6.00
44933;PMS3003;30667;43.614;1.442;2022-07-23T14:39:47;9.00;8.25;6.00
44933;PMS3003;30667;43.614;1.442;2022-07-23T14:42:13;10.20;9.20;5.40
44933;PMS3003;30667;43.614;1.442;2022-07-23T14:44:39;10.00;10.00;5.80
44933;PMS3003;30667;43.614;1.442;2022-07-23T14:47:05;9.00;9.00;5.00
44933;PMS3003;30667;43.614;1.442;2022-07-23T14:49:31;9.00;9.00;6.00
44933;PMS3003;30667;43.614;1.442;2022-07-23T14:51:57;11.00;10.40;6.80
44933;PMS3003;30667;43.614;1.442;2022-07-23T14:54:23;11.60;11.00;6.20
44933;PMS3003;30667;43.614;1.442;2022-07-23T14:56:51;10.00;9.80;6.00
44933;PMS3003;30667;43.614;1.442;2022-07-23T14:59:17;11.60;11.60;8.00
44933;PMS3003;30667;43.614;1.442;2022-07-23T15:01:42;10.00;10.00;6.00
44933;PMS3003;30667;43.614;1.442;2022-07-23T15:04:07;9.75;9.75;6.00
44933;PMS3003;30667;43.614;1.442;2022-07-23T15:06:33;10.25;9.75;5.25
44933;PMS3003;30667;43.614;1.442;2022-07-23T15:08:58;8.50;8.50;5.50
44933;PMS3003;30667;43.614;1.442;2022-07-23T15:11:25;8.00;7.40;4.40
44933;PMS3003;30667;43.614;1.442;2022-07-23T15:13:51;10.40;9.60;6.60
44933;PMS3003;30667;43.614;1.442;2022-07-23T15:16:17;11.00;11.00;6.00
44933;PMS3003;30667;43.614;1.442;2022-07-23T15:18:42;10.25;9.00;6.00
44933;PMS3003;30667;43.614;1.442;2022-07-23T15:21:08;9.25;9.25;6.00
44933;PMS3003;30667;43.614;1.442;2022-07-23T15:23:33;9.75;9.75;6.00
44933;PMS3003;30667;43.614;1.442;2022-07-23T15:26:00;10.60;9.00;6.00
44933;PMS3003;30667;43.614;1.442;2022-07-23T15:28:25;7.75;7.00;4.75
44933;PMS3003;30667;43.614;1.442;2022-07-23T15:30:51;9.25;9.25;4.75
44933;PMS3003;30667;43.614;1.442;2022-07-23T15:33:17;10.80;9.60;6.00
44933;PMS3003;30667;43.614;1.442;2022-07-23T15:35:43;9.25;8.00;5.00
44933;PMS3003;30667;43.614;1.442;2022-07-23T15:38:09;8.40;8.40;5.00
44933;PMS3003;30667;43.614;1.442;2022-07-23T15:40:34;7.75;7.75;4.00
44933;PMS3003;30667;43.614;1.442;2022-07-23T15:43:00;8.25;7.75;3.50
44933;PMS3003;30667;43.614;1.442;2022-07-23T15:45:26;8.00;8.00;5.20
44933;PMS3003;30667;43.614;1.442;2022-07-23T15:47:51;8.50;8.25;4.50
44933;PMS3003;30667;43.614;1.442;2022-07-23T15:50:16;8.25;8.25;5.75
44933;PMS3003;30667;43.614;1.442;2022-07-23T15:52:42;10.75;9.25;5.75
44933;PMS3003;30667;43.614;1.442;2022-07-23T15:55:08;9.00;8.00;5.25
44933;PMS3003;30667;43.614;1.442;2022-07-23T15:57:33;8.60;8.40;5.00
44933;PMS3003;30667;43.614;1.442;2022-07-23T15:59:59;9.25;9.25;5.00
44933;PMS3003;30667;43.614;1.442;2022-07-23T16:02:24;8.00;7.00;3.00
44933;PMS3003;30667;43.614;1.442;2022-07-23T16:04:50;7.75;7.00;4.00
44933;PMS3003;30667;43.614;1.442;2022-07-23T16:07:16;10.00;7.75;4.25
44933;PMS3003;30667;43.614;1.442;2022-07-23T16:09:43;8.40;8.00;5.00
44933;PMS3003;30667;43.614;1.442;2022-07-23T16:12:08;7.60;7.60;4.00
44933;PMS3003;30667;43.614;1.442;2022-07-23T16:14:34;9.40;8.20;4.80
44933;PMS3003;30667;43.614;1.442;2022-07-23T16:17:00;8.00;8.00;5.00
44933;PMS3003;30667;43.614;1.442;2022-07-23T16:19:26;9.75;9.00;5.75
44933;PMS3003;30667;43.614;1.442;2022-07-23T16:21:51;11.00;10.60;5.80
44933;PMS3003;30667;43.614;1.442;2022-07-23T16:24:17;10.60;10.40;6.80
44933;PMS3003;30667;43.614;1.442;2022-07-23T16:26:43;7.50;7.50;4.00
44933;PMS3003;30667;43.614;1.442;2022-07-23T16:29:08;9.00;8.00;4.50
44933;PMS3003;30667;43.614;1.442;2022-07-23T16:31:34;10.00;9.00;5.00
44933;PMS3003;30667;43.614;1.442;2022-07-23T16:33:59;10.25;8.75;4.00
44933;PMS3003;30667;43.614;1.442;2022-07-23T16:36:24;7.25;7.25;4.50
44933;PMS3003;30667;43.614;1.442;2022-07-23T16:38:50;8.00;7.50;5.00
44933;PMS3003;30667;43.614;1.442;2022-07-23T16:41:16;9.75;8.25;5.50
44933;PMS3003;30667;43.614;1.442;2022-07-23T16:43:41;10.25;9.75;6.00
44933;PMS3003;30667;43.614;1.442;2022-07-23T16:46:07;9.00;8.25;5.00
44933;PMS3003;30667;43.614;1.442;2022-07-23T16:48:33;8.60;8.40;4.80
44933;PMS3003;30667;43.614;1.442;2022-07-23T16:50:58;6.75;6.25;4.00
44933;PMS3003;30667;43.614;1.442;2022-07-23T16:53:24;9.75;9.75;5.25
44933;PMS3003;30667;43.614;1.442;2022-07-23T16:55:49;9.50;9.50;5.25
44933;PMS3003;30667;43.614;1.442;2022-07-23T16:58:14;9.00;7.75;3.25
44933;PMS3003;30667;43.614;1.442;2022-07-23T17:00:40;7.00;7.00;4.50
44933;PMS3003;30667;43.614;1.442;2022-07-23T17:03:05;11.25;10.00;5.75
44933;PMS3003;30667;43.614;1.442;2022-07-23T17:05:31;11.75;10.00;5.75
44933;PMS3003;30667;43.614;1.442;2022-07-23T17:07:56;9.50;9.00;5.00
44933;PMS3003;30667;43.614;1.442;2022-07-23T17:10:21;9.25;8.25;4.00
44933;PMS3003;30667;43.614;1.442;2022-07-23T17:12:48;9.60;9.00;5.00
44933;PMS3003;30667;43.614;1.442;2022-07-23T17:15:16;11.60;10.60;6.00
44933;PMS3003;30667;43.614;1.442;2022-07-23T17:17:45;10.00;10.00;6.00
44933;PMS3003;30667;43.614;1.442;2022-07-23T17:20:11;8.40;8.00;5.20
44933;PMS3003;30667;43.614;1.442;2022-07-23T17:22:38;10.00;9.00;6.00
44933;PMS3003;30667;43.614;1.442;2022-07-23T17:25:05;8.40;8.40;5.00
44933;PMS3003;30667;43.614;1.442;2022-07-23T17:27:34;9.40;8.60;5.00
44933;PMS3003;30667;43.614;1.442;2022-07-23T17:30:01;9.00;9.00;5.60
44933;PMS3003;30667;43.614;1.442;2022-07-23T17:32:28;8.00;8.00;4.40
44933;PMS3003;30667;43.614;1.442;2022-07-23T17:34:53;8.75;8.25;5.00
44933;PMS3003;30667;43.614;1.442;2022-07-23T17:37:19;8.50;8.50;5.50
44933;PMS3003;30667;43.614;1.442;2022-07-23T17:39:44;10.50;10.00;5.00
44933;PMS3003;30667;43.614;1.442;2022-07-23T17:42:09;11.00;9.75;6.00
44933;PMS3003;30667;43.614;1.442;2022-07-23T17:44:35;10.50;10.25;5.50
44933;PMS3003;30667;43.614;1.442;2022-07-23T17:47:00;8.25;8.25;5.00
44933;PMS3003;30667;43.614;1.442;2022-07-23T17:49:26;9.50;9.50;6.00
44933;PMS3003;30667;43.614;1.442;2022-07-23T17:51:51;11.00;11.00;6.00
44933;PMS3003;30667;43.614;1.442;2022-07-23T17:54:16;10.50;10.00;5.25
44933;PMS3003;30667;43.614;1.442;2022-07-23T17:56:42;9.50;9.00;5.00
44933;PMS3003;30667;43.614;1.442;2022-07-23T17:59:07;10.50;10.50;7.00
44933;PMS3003;30667;43.614;1.442;2022-07-23T18:01:35;9.00;9.00;5.40
44933;PMS3003;30667;43.614;1.442;2022-07-23T18:04:01;9.80;9.80;5.00